Strona główna
METAR-TAF:

METAR-TAF

Lotnisko :

Port lotniczy Wientian-Wattay

Wientian, Laos

Szerokość geograficzna: 17-57N, Długość geograficzna: 102-34E, wysokość: 171 m

Aktualna obserwacja pogody

Raport powstał 34 minut temu, godzina 15:30 UTC
Wiatr 10 kt od wschód
Temperatura 22°C
Wilgotność 69%
Ciśnienie 1011 hPa
Widzialność: 4000 m
zamglenie

METAR: VLVT 261530Z 09010KT 4000 BR NSC 22/16 Q1011 NOSIG

czas: 23:04 (16:04 UTC)

Prognoza

Raport powstał 5 godziny i 4 minut temu, godzina 11:00 UTC
Prognoza ważna od 26 godzina 12 UTC do 27 godzina 12 UTC
Wiatr 4 kt od północno-północny wschód
Widzialność: 8000 m
Mało chmury na wysokości 2000 ft
Mało chmury na wysokości 20000 ft

TAF: VLVT 261100Z 2612/2712 02004KT 8000 FEW020 FEW200

Obserwacja i prognoza pogody dla ponad 4000 lotnisk (raport METAR i TAF).

Dostępne stacje oznaczono żółtymi i czerwonymi punktami na mapie.

Najedź kursorem aby zobaczyć nazwę stacji.

Kliknij aby zobaczyć obserwacje i prognozy pogody.

Aby zmienić mapę: kliknij na zielony przycisk z czarnym krzyżykiem, aby powiększyć; na zielony przycisk z myślnikiem, aby pomniejszyć; na zielone strzałki, aby przejść do map sąsiednich.


METAR-TAF: